Terminal Aerodrome Forecast
Issued by NWS

Home | Current Version | Previous Version | Text Only | Print | Product List | Glossary On
Versions: 1 2 3 4 5 6 7 8 9 10 11 12 13 14 15 16 17 18 19 20 21
843
FTUS46 KPDT 211737
TAFPSC
TAF
KPSC 211737Z 2118/2218 VRB05KT 3SM BR BKN090
     FM212000 VRB05KT 6SM BR HZ SCT100
     FM220000 01005KT 6SM -SHRAPL SCT040 BKN060
     FM220500 VRB05KT P6SM SCT060 BKN090
     FM221500 32010KT 5SM -SNRAPL BKN025 OVC050=

USA.gov is the U.S. government's official web portal to all federal, state and local government web resources and services.